createdAt,value
2019-02-26T00:00:20.174Z,0.00
2019-02-26T00:01:19.149Z,0.00
2019-02-26T00:02:19.797Z,0.00
2019-02-26T00:03:19.894Z,0.00
2019-02-26T00:04:20.848Z,0.00
2019-02-26T00:05:21.402Z,0.00
2019-02-26T00:06:20.215Z,0.00
2019-02-26T00:07:22.928Z,0.00
2019-02-26T00:08:21.513Z,0.00
2019-02-26T00:09:22.341Z,0.00
2019-02-26T00:10:22.287Z,0.00
2019-02-26T00:11:18.774Z,0.00
2019-02-26T00:12:21.929Z,0.00
2019-02-26T00:13:18.906Z,0.00
2019-02-26T00:14:20.357Z,0.00
2019-02-26T00:15:19.020Z,0.00
2019-02-26T00:16:20.530Z,0.00
2019-02-26T00:17:19.574Z,0.00
2019-02-26T00:18:21.322Z,0.00
2019-02-26T00:19:19.254Z,0.00
2019-02-26T00:20:19.316Z,0.00
2019-02-26T00:21:20.415Z,0.00
2019-02-26T00:22:19.447Z,0.00
2019-02-26T00:23:21.498Z,0.00
2019-02-26T00:24:19.554Z,0.00
2019-02-26T00:25:20.420Z,0.00
2019-02-26T00:26:20.638Z,0.00
2019-02-26T00:27:19.750Z,0.00
2019-02-26T00:28:21.996Z,0.00
2019-02-26T00:29:21.163Z,0.00
2019-02-26T00:30:19.919Z,0.00
2019-02-26T00:31:21.437Z,0.00
2019-02-26T00:32:20.050Z,0.00
2019-02-26T00:33:22.374Z,0.00
2019-02-26T00:34:20.159Z,0.00
2019-02-26T00:35:21.202Z,0.00
2019-02-26T00:36:20.279Z,0.00
2019-02-26T00:37:22.094Z,0.00
2019-02-26T00:38:20.409Z,0.00
2019-02-26T00:39:21.037Z,0.00
2019-02-26T00:40:20.521Z,0.00
2019-02-26T00:41:22.601Z,0.00
2019-02-26T00:42:23.641Z,0.00
2019-02-26T00:43:23.275Z,0.00
2019-02-26T00:44:21.210Z,0.00
2019-02-26T00:45:24.660Z,0.00
2019-02-26T00:46:24.083Z,0.00
2019-02-26T00:47:20.947Z,0.00
2019-02-26T00:48:21.003Z,0.00
2019-02-26T00:49:21.603Z,0.00
2019-02-26T00:50:21.115Z,0.00
2019-02-26T00:51:22.649Z,0.00
2019-02-26T00:52:21.508Z,0.00
2019-02-26T00:53:23.463Z,0.00
2019-02-26T00:54:24.316Z,0.00
2019-02-26T00:55:25.215Z,0.00
2019-02-26T00:56:22.803Z,0.00
2019-02-26T00:57:21.544Z,0.00
2019-02-26T00:58:21.604Z,0.00
2019-02-26T00:59:21.656Z,0.00
2019-02-26T01:00:21.716Z,0.00
2019-02-26T01:01:23.412Z,0.00
2019-02-26T01:02:21.844Z,0.00
2019-02-26T01:03:21.904Z,0.00
2019-02-26T01:04:21.957Z,0.00
2019-02-26T01:05:22.020Z,0.00
2019-02-26T01:06:22.619Z,0.00
2019-02-26T01:07:23.853Z,0.00
2019-02-26T01:08:22.196Z,0.00
2019-02-26T01:09:23.132Z,0.00
2019-02-26T01:10:23.609Z,0.00
2019-02-26T01:11:23.838Z,0.00
2019-02-26T01:12:22.448Z,0.00
2019-02-26T01:13:25.022Z,0.00
2019-02-26T01:14:24.279Z,0.00
2019-02-26T01:15:22.620Z,0.00
2019-02-26T01:16:22.677Z,0.00
2019-02-26T01:17:22.745Z,0.00
2019-02-26T01:18:24.458Z,0.00
2019-02-26T01:19:22.858Z,0.00
2019-02-26T01:20:25.500Z,0.00
2019-02-26T01:21:26.254Z,0.00
2019-02-26T01:22:23.041Z,0.00
2019-02-26T01:23:24.376Z,0.00
2019-02-26T01:24:24.187Z,0.00
2019-02-26T01:25:23.217Z,0.00
2019-02-26T01:26:23.280Z,0.00
2019-02-26T01:27:23.390Z,0.00
2019-02-26T01:28:24.711Z,0.00
2019-02-26T01:29:25.201Z,0.00
2019-02-26T01:30:26.240Z,0.00
2019-02-26T01:31:24.695Z,0.00
2019-02-26T01:32:24.924Z,0.00
2019-02-26T01:33:24.653Z,0.00
2019-02-26T01:34:23.754Z,0.00
2019-02-26T01:35:23.814Z,0.00
2019-02-26T01:36:25.397Z,0.00
2019-02-26T01:37:25.314Z,0.00
2019-02-26T01:38:24.046Z,0.00
2019-02-26T01:39:24.059Z,0.00
2019-02-26T01:40:25.836Z,0.00
2019-02-26T01:41:25.093Z,0.00
2019-02-26T01:42:24.867Z,0.00
2019-02-26T01:43:24.290Z,0.00
2019-02-26T01:44:28.093Z,0.00
2019-02-26T01:45:27.133Z,0.00
2019-02-26T01:46:24.470Z,0.00
2019-02-26T01:47:26.196Z,0.00
2019-02-26T01:48:24.598Z,0.00
2019-02-26T01:49:26.660Z,0.00
2019-02-26T01:50:24.711Z,0.00
2019-02-26T01:51:26.207Z,0.00
2019-02-26T01:52:24.834Z,0.00
2019-02-26T01:53:24.895Z,0.00
2019-02-26T01:54:24.950Z,0.00
2019-02-26T01:55:25.316Z,0.00
2019-02-26T01:56:25.067Z,0.00
2019-02-26T01:57:27.187Z,0.00
2019-02-26T01:58:25.186Z,0.00
2019-02-26T01:59:25.247Z,0.00
2019-02-26T02:00:26.019Z,0.00
2019-02-26T02:01:26.208Z,0.00
2019-02-26T02:02:27.729Z,0.00
2019-02-26T02:03:27.800Z,0.00
2019-02-26T02:04:25.546Z,0.00
2019-02-26T02:05:28.143Z,0.00
2019-02-26T02:06:25.673Z,0.00
2019-02-26T02:07:26.455Z,0.00
2019-02-26T02:08:25.792Z,0.00
2019-02-26T02:09:25.843Z,0.00
2019-02-26T02:10:25.907Z,0.00
2019-02-26T02:11:28.365Z,0.00
2019-02-26T02:12:29.489Z,0.00
2019-02-26T02:13:28.404Z,0.00
2019-02-26T02:14:26.140Z,0.00
2019-02-26T02:15:26.202Z,0.00
2019-02-26T02:16:28.941Z,0.00
2019-02-26T02:17:26.424Z,0.00
2019-02-26T02:18:28.138Z,0.00
2019-02-26T02:19:27.593Z,0.00
2019-02-26T02:20:26.500Z,0.00
2019-02-26T02:21:28.355Z,0.00
2019-02-26T02:22:26.625Z,0.00
2019-02-26T02:23:28.093Z,0.00
2019-02-26T02:24:26.736Z,0.00
2019-02-26T02:25:28.971Z,0.00
2019-02-26T02:26:26.857Z,0.00
2019-02-26T02:27:28.109Z,0.00
2019-02-26T02:28:28.586Z,0.00
2019-02-26T02:29:28.585Z,0.00
2019-02-26T02:30:31.150Z,0.00
2019-02-26T02:31:31.006Z,0.00
2019-02-26T02:32:29.647Z,0.00
2019-02-26T02:33:29.609Z,0.00
2019-02-26T02:34:29.479Z,0.00
2019-02-26T02:35:27.389Z,0.00
2019-02-26T02:36:27.450Z,0.00
2019-02-26T02:37:29.510Z,0.00
2019-02-26T02:38:27.578Z,0.00
2019-02-26T02:39:29.244Z,0.00
2019-02-26T02:40:27.692Z,0.00
2019-02-26T02:41:27.744Z,0.00
2019-02-26T02:42:27.808Z,0.00
2019-02-26T02:43:27.876Z,0.00
2019-02-26T02:44:27.934Z,0.00
2019-02-26T02:45:27.985Z,0.00
2019-02-26T02:46:28.045Z,0.00
2019-02-26T02:47:30.739Z,0.00
2019-02-26T02:48:28.167Z,0.00
2019-02-26T02:49:29.624Z,0.00
2019-02-26T02:50:28.283Z,0.00
2019-02-26T02:51:31.183Z,0.00
2019-02-26T02:52:30.416Z,0.00
2019-02-26T02:53:30.195Z,0.00
2019-02-26T02:54:28.526Z,0.00
2019-02-26T02:55:28.587Z,0.00
2019-02-26T02:56:30.766Z,0.00
2019-02-26T02:57:30.035Z,0.00
2019-02-26T02:58:28.758Z,0.00
2019-02-26T02:59:31.027Z,0.00
2019-02-26T03:00:31.270Z,0.00
2019-02-26T03:01:28.948Z,0.00
2019-02-26T03:02:28.995Z,0.00
2019-02-26T03:03:29.059Z,0.00
2019-02-26T03:04:31.293Z,0.00
2019-02-26T03:05:31.495Z,0.00
2019-02-26T03:06:30.560Z,0.00
2019-02-26T03:07:29.492Z,0.00
2019-02-26T03:08:29.351Z,0.00
2019-02-26T03:09:31.117Z,0.00
2019-02-26T03:10:31.678Z,0.00
2019-02-26T03:11:29.530Z,0.00
2019-02-26T03:12:29.595Z,0.00
2019-02-26T03:13:29.647Z,0.00
2019-02-26T03:14:32.908Z,0.00
2019-02-26T03:15:32.928Z,0.00
2019-02-26T03:16:29.828Z,0.00
2019-02-26T03:17:29.887Z,0.00
2019-02-26T03:18:29.947Z,0.00
2019-02-26T03:19:32.683Z,0.00
2019-02-26T03:20:31.827Z,0.00
2019-02-26T03:21:30.625Z,0.00
2019-02-26T03:22:30.194Z,0.00
2019-02-26T03:23:31.304Z,0.00
2019-02-26T03:24:31.494Z,0.00
2019-02-26T03:25:30.367Z,0.00
2019-02-26T03:26:30.421Z,0.00
2019-02-26T03:27:31.184Z,0.00
2019-02-26T03:28:34.907Z,0.00
2019-02-26T03:29:30.603Z,0.00
2019-02-26T03:30:34.016Z,0.00
2019-02-26T03:31:35.283Z,0.00
2019-02-26T03:32:30.777Z,0.00
2019-02-26T03:33:30.837Z,0.00
2019-02-26T03:34:30.920Z,0.00
2019-02-26T03:35:30.976Z,0.00
2019-02-26T03:36:31.625Z,0.00
2019-02-26T03:37:32.062Z,0.00
2019-02-26T03:38:31.136Z,0.00
2019-02-26T03:39:31.208Z,0.00
2019-02-26T03:40:32.947Z,0.00
2019-02-26T03:41:31.365Z,0.00
2019-02-26T03:42:33.241Z,0.00
2019-02-26T03:43:34.010Z,0.00
2019-02-26T03:44:31.499Z,0.00
2019-02-26T03:45:31.553Z,0.00
2019-02-26T03:46:31.604Z,0.00
2019-02-26T03:47:31.667Z,0.00
2019-02-26T03:48:31.724Z,0.00
2019-02-26T03:49:31.792Z,0.00
2019-02-26T03:50:31.849Z,0.00
2019-02-26T03:51:31.904Z,0.00
2019-02-26T03:52:32.253Z,0.00
2019-02-26T03:53:34.243Z,0.00
2019-02-26T03:54:32.101Z,0.00
2019-02-26T03:55:34.203Z,0.00
2019-02-26T03:56:32.198Z,0.00
2019-02-26T03:57:32.257Z,0.00
2019-02-26T03:58:32.317Z,0.00
2019-02-26T03:59:32.381Z,0.00
2019-02-26T04:00:34.598Z,0.00
2019-02-26T04:01:32.502Z,0.00
2019-02-26T04:02:32.553Z,0.00
2019-02-26T04:03:34.734Z,0.00
2019-02-26T04:04:33.716Z,0.00
2019-02-26T04:05:32.741Z,0.00
2019-02-26T04:06:34.157Z,0.00
2019-02-26T04:07:33.343Z,0.00
2019-02-26T04:08:32.905Z,0.00
2019-02-26T04:09:32.975Z,0.00
2019-02-26T04:10:33.029Z,0.00
2019-02-26T04:11:33.082Z,0.00
2019-02-26T04:12:36.072Z,0.00
2019-02-26T04:13:33.206Z,0.00
2019-02-26T04:14:33.310Z,0.00
2019-02-26T04:15:35.881Z,0.00
2019-02-26T04:16:35.368Z,0.00
2019-02-26T04:17:36.670Z,0.00
2019-02-26T04:18:34.785Z,0.00
2019-02-26T04:19:33.562Z,0.00
2019-02-26T04:20:33.622Z,0.00
2019-02-26T04:21:33.674Z,0.00
2019-02-26T04:22:33.736Z,0.00
2019-02-26T04:23:36.137Z,0.00
2019-02-26T04:24:36.061Z,0.00
2019-02-26T04:25:36.332Z,0.00
2019-02-26T04:26:35.077Z,0.00
2019-02-26T04:27:36.175Z,0.00
2019-02-26T04:28:36.405Z,0.00
2019-02-26T04:29:36.086Z,0.00
2019-02-26T04:30:38.684Z,0.00
2019-02-26T04:31:34.265Z,0.00
2019-02-26T04:32:37.782Z,0.00
2019-02-26T04:33:35.999Z,0.00
2019-02-26T04:34:34.447Z,0.00
2019-02-26T04:35:34.508Z,0.00
2019-02-26T04:36:36.926Z,0.00
2019-02-26T04:37:35.238Z,0.00
2019-02-26T04:38:34.675Z,0.00
2019-02-26T04:39:36.744Z,0.00
2019-02-26T04:40:36.325Z,0.00
2019-02-26T04:41:34.851Z,0.00
2019-02-26T04:42:36.004Z,0.00
2019-02-26T04:43:36.303Z,0.00
2019-02-26T04:44:35.035Z,0.00
2019-02-26T04:45:35.096Z,0.00
2019-02-26T04:46:36.950Z,0.00
2019-02-26T04:47:35.207Z,0.00
2019-02-26T04:48:35.266Z,0.00
2019-02-26T04:49:38.327Z,0.00
2019-02-26T04:50:38.471Z,0.00
2019-02-26T04:51:36.316Z,0.00
2019-02-26T04:52:37.785Z,0.00
2019-02-26T04:53:36.455Z,0.00
2019-02-26T04:54:36.936Z,0.00
2019-02-26T04:55:38.228Z,0.00
2019-02-26T04:56:37.018Z,0.00
2019-02-26T04:57:39.402Z,0.00
2019-02-26T04:58:37.226Z,0.00
2019-02-26T04:59:38.061Z,0.00
2019-02-26T05:00:38.523Z,0.00
2019-02-26T05:01:36.027Z,0.00
2019-02-26T05:02:36.089Z,0.00
2019-02-26T05:03:36.153Z,0.00
2019-02-26T05:04:37.528Z,0.00
2019-02-26T05:05:37.116Z,0.00
2019-02-26T05:06:36.325Z,0.00
2019-02-26T05:07:38.502Z,0.00
2019-02-26T05:08:37.664Z,0.00
2019-02-26T05:09:36.520Z,0.00
2019-02-26T05:10:36.571Z,0.00
2019-02-26T05:11:40.392Z,0.00
2019-02-26T05:12:37.943Z,0.00
2019-02-26T05:13:36.733Z,0.00
2019-02-26T05:14:36.801Z,0.00
2019-02-26T05:15:36.861Z,0.00
2019-02-26T05:16:37.870Z,0.00
2019-02-26T05:17:36.970Z,0.00
2019-02-26T05:18:37.028Z,0.00
2019-02-26T05:19:39.608Z,0.00
2019-02-26T05:20:39.300Z,0.00
2019-02-26T05:21:37.951Z,0.00
2019-02-26T05:22:37.267Z,0.00
2019-02-26T05:23:37.321Z,0.00
2019-02-26T05:24:38.635Z,0.00
2019-02-26T05:25:39.729Z,0.00
2019-02-26T05:26:37.501Z,0.00
2019-02-26T05:27:39.996Z,0.00
2019-02-26T05:28:40.705Z,0.00
2019-02-26T05:29:40.394Z,0.00
2019-02-26T05:30:40.191Z,0.00
2019-02-26T05:31:40.051Z,0.00
2019-02-26T05:32:37.849Z,0.00
2019-02-26T05:33:37.910Z,0.00
2019-02-26T05:34:39.915Z,0.00
2019-02-26T05:35:40.699Z,0.00
2019-02-26T05:36:40.291Z,0.00
2019-02-26T05:37:40.868Z,0.00
2019-02-26T05:38:38.202Z,0.00
2019-02-26T05:39:40.350Z,0.00
2019-02-26T05:40:40.397Z,0.00
2019-02-26T05:41:40.357Z,0.00
2019-02-26T05:42:38.443Z,0.00
2019-02-26T05:43:38.494Z,0.00
2019-02-26T05:44:38.555Z,0.00
2019-02-26T05:45:38.646Z,0.00
2019-02-26T05:46:38.679Z,0.00
2019-02-26T05:47:38.746Z,0.00
2019-02-26T05:48:40.080Z,0.00
2019-02-26T05:49:41.310Z,0.00
2019-02-26T05:50:41.310Z,0.00
2019-02-26T05:51:38.980Z,0.00
2019-02-26T05:52:39.103Z,0.00
2019-02-26T05:53:39.082Z,0.00
2019-02-26T05:54:39.139Z,0.00
2019-02-26T05:55:41.625Z,0.00
2019-02-26T05:56:41.261Z,0.00
2019-02-26T05:57:39.316Z,4.00
2019-02-26T05:58:41.429Z,4.00
2019-02-26T05:59:41.829Z,4.00
2019-02-26T06:00:39.492Z,0.00
2019-02-26T06:01:39.559Z,4.00
2019-02-26T06:02:42.138Z,4.00
2019-02-26T06:03:41.055Z,4.00
2019-02-26T06:04:41.043Z,8.00
2019-02-26T06:05:43.451Z,8.00
2019-02-26T06:06:39.902Z,12.00
2019-02-26T06:07:39.912Z,12.00
2019-02-26T06:08:41.274Z,12.00
2019-02-26T06:09:40.020Z,20.00
2019-02-26T06:10:40.079Z,24.00
2019-02-26T06:11:42.843Z,28.00
2019-02-26T06:12:41.490Z,28.00
2019-02-26T06:13:42.684Z,32.00
2019-02-26T06:14:40.312Z,40.00
2019-02-26T06:15:40.367Z,44.00
2019-02-26T06:16:40.437Z,48.00
2019-02-26T06:17:42.878Z,56.00
2019-02-26T06:18:41.951Z,60.00
2019-02-26T06:19:42.328Z,72.00
2019-02-26T06:20:40.665Z,80.00
2019-02-26T06:21:43.988Z,88.00
2019-02-26T06:22:40.788Z,100.00
2019-02-26T06:23:43.106Z,112.00
2019-02-26T06:24:40.896Z,124.00
2019-02-26T06:25:40.960Z,136.00
2019-02-26T06:26:43.028Z,152.00
2019-02-26T06:27:41.084Z,168.00
2019-02-26T06:28:43.480Z,188.00
2019-02-26T06:29:41.188Z,212.00
2019-02-26T06:30:41.255Z,232.00
2019-02-26T06:31:42.262Z,252.00
2019-02-26T06:32:43.977Z,276.00
2019-02-26T06:33:43.221Z,304.00
2019-02-26T06:34:41.495Z,332.00
2019-02-26T06:35:42.848Z,360.00
2019-02-26T06:36:42.094Z,388.00
2019-02-26T06:37:41.669Z,420.00
2019-02-26T06:38:41.721Z,448.00
2019-02-26T06:39:41.777Z,472.00
2019-02-26T06:40:45.852Z,500.00
2019-02-26T06:41:44.190Z,528.00
2019-02-26T06:42:41.961Z,556.00
2019-02-26T06:43:45.004Z,592.00
2019-02-26T06:44:43.729Z,624.00
2019-02-26T06:45:43.595Z,648.00
2019-02-26T06:46:42.189Z,680.00
2019-02-26T06:47:42.261Z,716.00
2019-02-26T06:48:42.302Z,740.00
2019-02-26T06:49:43.273Z,764.00
2019-02-26T06:50:43.511Z,792.00
2019-02-26T06:51:42.993Z,820.00
2019-02-26T06:52:44.723Z,840.00
2019-02-26T06:53:45.063Z,864.00
2019-02-26T06:54:47.750Z,892.00
2019-02-26T06:55:42.710Z,916.00
2019-02-26T06:56:44.302Z,940.00
2019-02-26T06:57:46.371Z,964.00
2019-02-26T06:58:44.948Z,992.00
2019-02-26T06:59:42.949Z,1012.00
2019-02-26T07:00:43.701Z,1044.00
2019-02-26T07:01:43.062Z,1064.00
2019-02-26T07:02:46.221Z,1092.00
2019-02-26T07:03:43.182Z,1116.00
2019-02-26T07:04:43.239Z,1144.00
2019-02-26T07:05:46.449Z,1172.00
2019-02-26T07:06:43.358Z,1196.00
2019-02-26T07:07:43.423Z,1224.00
2019-02-26T07:08:44.574Z,1256.00
2019-02-26T07:09:43.980Z,1280.00
2019-02-26T07:10:43.590Z,1308.00
2019-02-26T07:11:43.650Z,1336.00
2019-02-26T07:12:45.508Z,1368.00
2019-02-26T07:13:44.769Z,1392.00
2019-02-26T07:14:43.823Z,1420.00
2019-02-26T07:15:45.463Z,1448.00
2019-02-26T07:16:43.947Z,1480.00
2019-02-26T07:17:45.861Z,1504.00
2019-02-26T07:18:44.075Z,1536.00
2019-02-26T07:19:44.123Z,1564.00
2019-02-26T07:20:49.243Z,1592.00
2019-02-26T07:21:45.492Z,1620.00
2019-02-26T07:22:46.815Z,1640.00
2019-02-26T07:23:44.383Z,1660.00
2019-02-26T07:24:46.286Z,1676.00
2019-02-26T07:25:44.475Z,1692.00
2019-02-26T07:26:46.353Z,1708.00
2019-02-26T07:27:44.598Z,1720.00
2019-02-26T07:28:46.473Z,1740.00
2019-02-26T07:29:45.739Z,1756.00
2019-02-26T07:30:46.795Z,1768.00
2019-02-26T07:31:44.832Z,1776.00
2019-02-26T07:32:46.196Z,1792.00
2019-02-26T07:33:44.952Z,1816.00
2019-02-26T07:34:47.276Z,1828.00
2019-02-26T07:35:45.068Z,1840.00
2019-02-26T07:36:45.701Z,1868.00
2019-02-26T07:37:45.192Z,1880.00
2019-02-26T07:38:48.519Z,1900.00
2019-02-26T07:39:47.207Z,1924.00
2019-02-26T07:40:45.364Z,1956.00
2019-02-26T07:41:47.078Z,2012.00
2019-02-26T07:42:46.614Z,2080.00
2019-02-26T07:43:46.885Z,2188.00
2019-02-26T07:44:45.604Z,2348.00
2019-02-26T07:45:45.848Z,2644.00
2019-02-26T07:46:45.725Z,6976.00
2019-02-26T07:47:45.780Z,19840.00
2019-02-26T07:48:46.147Z,34144.00
2019-02-26T07:49:45.901Z,40928.00
2019-02-26T07:50:48.266Z,41664.00
2019-02-26T07:51:46.033Z,40672.00
2019-02-26T07:52:47.381Z,39936.00
2019-02-26T07:53:50.559Z,40192.00
2019-02-26T07:54:47.602Z,40800.00
2019-02-26T07:55:46.274Z,41312.00
2019-02-26T07:56:46.385Z,41408.00
2019-02-26T07:57:48.924Z,43040.00
2019-02-26T07:58:46.457Z,42944.00
2019-02-26T07:59:47.574Z,42592.00
2019-02-26T08:00:49.587Z,42656.00
2019-02-26T08:01:47.145Z,43744.00
2019-02-26T08:02:46.725Z,44128.00
2019-02-26T08:03:48.706Z,43072.00
2019-02-26T08:04:46.846Z,43232.00
2019-02-26T08:05:46.918Z,43264.00
2019-02-26T08:06:46.981Z,42272.00
2019-02-26T08:07:48.676Z,42208.00
2019-02-26T08:08:48.835Z,40320.00
2019-02-26T08:09:47.173Z,39520.00
2019-02-26T08:10:48.851Z,41408.00
2019-02-26T08:11:48.994Z,40960.00
2019-02-26T08:12:47.393Z,40000.00
2019-02-26T08:13:49.319Z,41024.00
2019-02-26T08:14:48.211Z,41760.00
2019-02-26T08:15:47.571Z,41056.00
2019-02-26T08:16:51.410Z,40800.00
2019-02-26T08:17:50.188Z,40544.00
2019-02-26T08:18:49.395Z,40896.00
2019-02-26T08:19:49.372Z,40736.00
2019-02-26T08:20:47.910Z,38848.00
2019-02-26T08:21:50.154Z,39968.00
2019-02-26T08:22:49.532Z,39072.00
2019-02-26T08:23:48.318Z,39008.00
2019-02-26T08:24:50.086Z,37920.00
2019-02-26T08:25:49.619Z,37504.00
2019-02-26T08:26:49.757Z,35808.00
2019-02-26T08:27:49.911Z,36384.00
2019-02-26T08:28:48.455Z,36384.00
2019-02-26T08:29:49.455Z,36096.00
2019-02-26T08:30:49.810Z,35264.00
2019-02-26T08:31:49.513Z,34144.00
2019-02-26T08:32:53.509Z,32992.00
2019-02-26T08:33:51.611Z,32032.00
2019-02-26T08:34:48.867Z,30592.00
2019-02-26T08:35:48.936Z,22752.00
2019-02-26T08:36:49.003Z,16256.00
2019-02-26T08:37:49.071Z,15104.00
2019-02-26T08:38:49.164Z,14912.00
2019-02-26T08:39:49.211Z,14720.00
2019-02-26T08:40:49.283Z,14496.00
2019-02-26T08:41:49.348Z,14368.00
2019-02-26T08:42:49.415Z,14304.00
2019-02-26T08:43:51.445Z,14208.00
2019-02-26T08:44:51.226Z,14304.00
2019-02-26T08:45:49.628Z,14560.00
2019-02-26T08:46:49.692Z,15200.00
2019-02-26T08:47:49.760Z,15776.00
2019-02-26T08:48:50.838Z,16256.00
2019-02-26T08:49:49.904Z,18432.00
2019-02-26T08:50:49.968Z,22784.00
2019-02-26T08:51:50.036Z,26656.00
2019-02-26T08:52:52.884Z,27936.00
2019-02-26T08:53:51.876Z,27840.00
2019-02-26T08:54:50.247Z,24704.00
2019-02-26T08:55:51.567Z,21792.00
2019-02-26T08:56:50.381Z,21760.00
2019-02-26T08:57:51.983Z,20960.00
2019-02-26T08:58:50.530Z,18368.00
2019-02-26T08:59:52.291Z,17984.00
2019-02-26T09:00:50.657Z,18432.00
2019-02-26T09:01:50.725Z,18528.00
2019-02-26T09:02:54.029Z,17984.00
2019-02-26T09:03:53.172Z,17952.00
2019-02-26T09:04:50.945Z,17728.00
2019-02-26T09:05:51.609Z,17248.00
2019-02-26T09:06:52.413Z,17152.00
2019-02-26T09:07:51.145Z,16800.00
2019-02-26T09:08:51.335Z,16576.00
2019-02-26T09:09:54.321Z,16448.00
2019-02-26T09:10:51.349Z,15424.00
2019-02-26T09:11:52.961Z,14024.00
2019-02-26T09:12:52.067Z,13096.00
2019-02-26T09:13:51.566Z,12576.00
2019-02-26T09:14:51.633Z,12276.00
2019-02-26T09:15:51.695Z,12072.00
2019-02-26T09:16:52.549Z,11952.00
2019-02-26T09:17:51.834Z,11768.00
2019-02-26T09:18:51.911Z,11628.00
2019-02-26T09:19:53.246Z,11584.00
2019-02-26T09:20:52.041Z,11396.00
2019-02-26T09:21:52.891Z,11268.00
2019-02-26T09:22:54.439Z,11152.00
2019-02-26T09:23:54.873Z,11060.00
2019-02-26T09:24:54.373Z,10860.00
2019-02-26T09:25:54.885Z,10676.00
2019-02-26T09:26:54.707Z,10480.00
2019-02-26T09:27:52.526Z,10304.00
2019-02-26T09:28:54.763Z,10200.00
2019-02-26T09:29:52.670Z,9924.00
2019-02-26T09:30:53.777Z,9828.00
2019-02-26T09:31:52.803Z,9624.00
2019-02-26T09:32:52.874Z,9620.00
2019-02-26T09:33:52.946Z,9532.00
2019-02-26T09:34:54.457Z,9312.00
2019-02-26T09:35:54.519Z,9104.00
2019-02-26T09:36:55.529Z,8616.00
2019-02-26T09:37:55.520Z,8912.00
2019-02-26T09:38:53.330Z,9268.00
2019-02-26T09:39:54.366Z,9116.00
2019-02-26T09:40:54.676Z,8996.00
2019-02-26T09:41:53.491Z,8888.00
2019-02-26T09:42:55.158Z,8748.00
2019-02-26T09:43:53.635Z,8632.00
2019-02-26T09:44:55.421Z,8520.00
2019-02-26T09:45:53.772Z,8364.00
2019-02-26T09:46:55.267Z,8248.00
2019-02-26T09:47:55.607Z,8132.00
2019-02-26T09:48:53.979Z,8016.00
2019-02-26T09:49:56.057Z,7904.00
2019-02-26T09:50:54.107Z,7816.00
2019-02-26T09:51:55.094Z,7716.00
2019-02-26T09:52:58.136Z,7616.00
2019-02-26T09:53:56.451Z,7528.00
2019-02-26T09:54:55.241Z,7440.00
2019-02-26T09:55:54.457Z,7328.00
2019-02-26T09:56:54.522Z,7212.00
2019-02-26T09:57:54.587Z,7108.00
2019-02-26T09:58:54.663Z,7036.00
2019-02-26T09:59:57.329Z,6944.00
2019-02-26T10:00:54.800Z,6872.00
2019-02-26T10:01:56.518Z,6812.00
2019-02-26T10:02:54.932Z,6760.00
2019-02-26T10:03:56.085Z,6692.00
2019-02-26T10:04:55.076Z,6632.00
2019-02-26T10:05:56.056Z,6576.00
2019-02-26T10:06:55.204Z,6512.00
2019-02-26T10:07:59.285Z,6452.00
2019-02-26T10:08:56.049Z,6376.00
2019-02-26T10:09:55.408Z,6312.00
2019-02-26T10:10:57.681Z,6268.00
2019-02-26T10:11:55.548Z,6228.00
2019-02-26T10:12:57.438Z,6148.00
2019-02-26T10:13:55.693Z,6084.00
2019-02-26T10:14:59.486Z,6016.00
2019-02-26T10:15:58.253Z,5980.00
2019-02-26T10:16:56.997Z,5920.00
2019-02-26T10:17:58.266Z,5892.00
2019-02-26T10:18:56.717Z,5840.00
2019-02-26T10:19:56.954Z,5824.00
2019-02-26T10:20:56.161Z,5784.00
2019-02-26T10:21:57.396Z,5792.00
2019-02-26T10:22:58.635Z,5744.00
2019-02-26T10:23:56.881Z,5700.00
2019-02-26T10:24:56.433Z,5652.00
2019-02-26T10:25:57.933Z,5612.00
2019-02-26T10:26:58.736Z,5600.00
2019-02-26T10:27:56.647Z,5556.00
2019-02-26T10:29:03.346Z,5516.00
2019-02-26T10:29:56.781Z,5480.00
2019-02-26T10:30:57.436Z,5440.00
2019-02-26T10:31:56.910Z,5392.00
2019-02-26T10:33:01.961Z,5364.00
2019-02-26T10:33:57.053Z,5316.00
2019-02-26T10:34:57.122Z,5272.00
2019-02-26T10:35:57.181Z,5228.00
2019-02-26T10:36:57.250Z,5168.00
2019-02-26T10:37:59.713Z,5112.00
2019-02-26T10:38:58.512Z,5032.00
2019-02-26T10:39:57.455Z,4964.00
2019-02-26T10:40:59.734Z,4860.00
2019-02-26T10:41:57.590Z,4756.00
2019-02-26T10:42:57.658Z,4656.00
2019-02-26T10:43:57.746Z,4592.00
2019-02-26T10:44:57.802Z,4532.00
2019-02-26T10:45:57.872Z,4476.00
2019-02-26T10:46:58.918Z,4428.00
2019-02-26T10:48:00.951Z,4388.00
2019-02-26T10:48:58.093Z,4328.00
2019-02-26T10:49:58.136Z,4288.00
2019-02-26T10:50:58.202Z,4272.00
2019-02-26T10:51:58.652Z,4236.00
2019-02-26T10:53:06.841Z,4196.00
2019-02-26T10:53:59.981Z,4160.00
2019-02-26T10:54:58.481Z,4132.00
2019-02-26T10:55:58.542Z,4092.00
2019-02-26T10:57:00.384Z,4064.00
2019-02-26T10:58:03.594Z,4024.00
2019-02-26T10:59:02.922Z,4004.00
2019-02-26T10:59:59.581Z,3976.00
2019-02-26T11:01:01.536Z,3948.00
2019-02-26T11:02:00.761Z,3920.00
2019-02-26T11:02:59.023Z,3880.00
2019-02-26T11:03:59.127Z,3748.00
2019-02-26T11:04:59.158Z,3720.00
2019-02-26T11:05:59.224Z,3772.00
2019-02-26T11:06:59.860Z,3748.00
2019-02-26T11:08:02.230Z,3700.00
2019-02-26T11:09:01.748Z,3660.00
2019-02-26T11:09:59.495Z,3628.00
2019-02-26T11:10:59.556Z,3596.00
2019-02-26T11:12:00.829Z,3560.00
2019-02-26T11:12:59.869Z,3556.00
2019-02-26T11:13:59.764Z,3524.00
2019-02-26T11:15:01.701Z,3484.00
2019-02-26T11:16:02.916Z,3444.00
2019-02-26T11:16:59.960Z,3404.00
2019-02-26T11:18:00.028Z,3392.00
2019-02-26T11:19:01.986Z,3348.00
2019-02-26T11:20:01.147Z,3308.00
2019-02-26T11:21:00.233Z,3272.00
2019-02-26T11:22:03.887Z,3260.00
2019-02-26T11:23:00.364Z,3248.00
2019-02-26T11:24:01.413Z,3220.00
2019-02-26T11:25:00.982Z,3220.00
2019-02-26T11:26:00.574Z,3216.00
2019-02-26T11:27:00.636Z,3216.00
2019-02-26T11:28:02.499Z,3220.00
2019-02-26T11:29:00.776Z,3220.00
2019-02-26T11:30:02.087Z,3224.00
2019-02-26T11:31:00.904Z,3220.00
2019-02-26T11:32:01.710Z,3212.00
2019-02-26T11:33:03.097Z,3220.00
2019-02-26T11:34:04.070Z,3216.00
2019-02-26T11:35:02.336Z,3216.00
2019-02-26T11:36:02.860Z,3228.00
2019-02-26T11:37:03.333Z,3220.00
2019-02-26T11:38:01.377Z,3216.00
2019-02-26T11:39:04.111Z,3236.00
2019-02-26T11:40:02.874Z,3268.00
2019-02-26T11:41:01.582Z,3276.00
2019-02-26T11:42:01.652Z,3272.00
2019-02-26T11:43:11.152Z,3280.00
2019-02-26T11:44:01.790Z,3272.00
2019-02-26T11:45:01.858Z,3260.00
2019-02-26T11:46:03.718Z,3264.00
2019-02-26T11:47:01.986Z,3260.00
2019-02-26T11:48:03.802Z,3252.00
2019-02-26T11:49:02.137Z,3248.00
2019-02-26T11:50:04.675Z,3256.00
2019-02-26T11:51:02.258Z,3292.00
2019-02-26T11:52:04.424Z,3304.00
2019-02-26T11:53:02.393Z,3320.00
2019-02-26T11:54:04.985Z,3292.00
2019-02-26T11:55:05.793Z,3280.00
2019-02-26T11:56:02.594Z,3268.00
2019-02-26T11:57:04.539Z,3252.00
2019-02-26T11:58:05.597Z,3256.00
2019-02-26T11:59:06.404Z,3240.00
2019-02-26T12:00:04.499Z,3228.00
2019-02-26T12:01:02.948Z,3212.00
2019-02-26T12:02:04.419Z,3188.00
2019-02-26T12:03:03.075Z,3168.00
2019-02-26T12:04:04.111Z,3156.00
2019-02-26T12:05:05.448Z,3148.00
2019-02-26T12:06:03.278Z,3144.00
2019-02-26T12:07:04.133Z,3140.00
2019-02-26T12:08:03.422Z,3128.00
2019-02-26T12:09:05.500Z,3128.00
2019-02-26T12:10:09.271Z,3140.00
2019-02-26T12:11:06.203Z,3136.00
2019-02-26T12:12:05.991Z,3128.00
2019-02-26T12:13:03.759Z,3132.00
2019-02-26T12:14:03.828Z,3128.00
2019-02-26T12:15:04.913Z,3112.00
2019-02-26T12:16:03.960Z,3104.00
2019-02-26T12:17:04.027Z,3096.00
2019-02-26T12:18:04.088Z,3092.00
2019-02-26T12:19:06.030Z,3084.00
2019-02-26T12:20:04.223Z,3092.00
2019-02-26T12:21:05.981Z,3088.00
2019-02-26T12:22:06.005Z,3096.00
2019-02-26T12:23:04.429Z,3104.00
2019-02-26T12:24:06.607Z,3104.00
2019-02-26T12:25:08.274Z,3108.00
2019-02-26T12:26:04.634Z,3120.00
2019-02-26T12:27:04.700Z,3124.00
2019-02-26T12:28:05.416Z,3132.00
2019-02-26T12:29:04.845Z,3144.00
2019-02-26T12:30:06.749Z,3148.00
2019-02-26T12:31:07.061Z,3152.00
2019-02-26T12:32:05.050Z,3160.00
2019-02-26T12:33:07.120Z,3168.00
2019-02-26T12:34:05.176Z,3176.00
2019-02-26T12:35:05.991Z,3180.00
2019-02-26T12:36:07.483Z,3196.00
2019-02-26T12:37:06.650Z,3216.00
2019-02-26T12:38:17.324Z,3228.00
2019-02-26T12:39:05.516Z,3248.00